createdAt,value
2019-03-02T00:00:49.028Z,69.72
2019-03-02T00:03:18.001Z,80.77
2019-03-02T00:05:46.986Z,86.22
2019-03-02T00:08:15.948Z,73.37
2019-03-02T00:10:45.835Z,90.87
2019-03-02T00:13:18.154Z,80.40
2019-03-02T00:15:47.068Z,80.77
2019-03-02T00:18:16.058Z,81.55
2019-03-02T00:20:45.004Z,72.30
2019-03-02T00:23:15.812Z,75.75
2019-03-02T00:25:46.309Z,76.62
2019-03-02T00:28:15.328Z,79.90
2019-03-02T00:30:44.198Z,79.77
2019-03-02T00:33:13.195Z,71.85
2019-03-02T00:35:43.754Z,68.28
2019-03-02T00:38:12.713Z,73.10
2019-03-02T00:40:41.588Z,82.02
2019-03-02T00:43:10.571Z,72.55
2019-03-02T00:45:39.422Z,73.97
2019-03-02T00:48:11.113Z,78.12
2019-03-02T00:50:39.009Z,79.72
2019-03-02T00:53:07.927Z,70.00
2019-03-02T00:55:38.882Z,59.08
2019-03-02T00:58:07.764Z,49.20
2019-03-02T01:00:36.758Z,51.53
2019-03-02T01:03:05.964Z,49.65
2019-03-02T01:05:36.308Z,49.65
2019-03-02T01:08:05.559Z,43.80
2019-03-02T01:10:34.509Z,42.43
2019-03-02T01:13:04.826Z,47.88
2019-03-02T01:15:33.692Z,42.88
2019-03-02T01:18:06.666Z,46.35
2019-03-02T01:20:34.811Z,40.08
2019-03-02T01:23:06.538Z,51.95
2019-03-02T01:25:39.455Z,48.52
2019-03-02T01:28:09.730Z,44.80
2019-03-02T01:30:39.145Z,52.43
2019-03-02T01:33:08.094Z,47.25
2019-03-02T01:35:38.659Z,41.55
2019-03-02T01:38:08.755Z,44.63
2019-03-02T01:40:37.837Z,48.15
2019-03-02T01:43:08.497Z,51.20
2019-03-02T01:45:38.162Z,51.53
2019-03-02T01:48:07.139Z,48.95
2019-03-02T01:50:38.616Z,53.68
2019-03-02T01:53:09.921Z,48.55
2019-03-02T01:55:39.324Z,52.40
2019-03-02T01:58:10.998Z,50.52
2019-03-02T02:00:39.951Z,59.15
2019-03-02T02:03:12.119Z,51.37
2019-03-02T02:05:41.848Z,58.52
2019-03-02T02:08:10.886Z,59.63
2019-03-02T02:10:43.047Z,51.20
2019-03-02T02:13:12.865Z,55.05
2019-03-02T02:15:41.860Z,57.58
2019-03-02T02:18:10.844Z,56.35
2019-03-02T02:20:39.774Z,57.93
2019-03-02T02:23:09.798Z,60.48
2019-03-02T02:25:39.294Z,56.53
2019-03-02T02:28:09.406Z,63.23
2019-03-02T02:30:38.334Z,67.25
2019-03-02T02:33:07.291Z,66.60
2019-03-02T02:35:40.340Z,63.15
2019-03-02T02:38:11.065Z,63.35
2019-03-02T02:40:38.867Z,61.10
2019-03-02T02:43:20.401Z,73.90
2019-03-02T02:45:48.992Z,72.72
2019-03-02T02:48:15.922Z,64.42
2019-03-02T02:50:44.915Z,68.95
2019-03-02T02:53:13.931Z,72.72
2019-03-02T02:55:42.828Z,73.57
2019-03-02T02:58:12.489Z,73.22
2019-03-02T03:00:42.340Z,75.83
2019-03-02T03:03:15.764Z,75.60
2019-03-02T03:05:41.891Z,81.70
2019-03-02T03:08:10.707Z,70.90
2019-03-02T03:10:43.486Z,74.30
2019-03-02T03:13:12.473Z,77.97
2019-03-02T03:15:44.226Z,82.60
2019-03-02T03:18:15.107Z,84.90
2019-03-02T03:20:48.827Z,75.75
2019-03-02T03:23:14.142Z,73.17
2019-03-02T03:25:44.049Z,79.10
2019-03-02T03:28:13.116Z,73.60
2019-03-02T03:30:44.125Z,83.27
2019-03-02T03:33:13.519Z,85.92
2019-03-02T03:35:42.835Z,82.97
2019-03-02T03:38:12.841Z,84.00
2019-03-02T03:40:43.274Z,88.35
2019-03-02T03:43:12.022Z,98.80
2019-03-02T03:45:43.313Z,82.10
2019-03-02T03:48:12.936Z,89.28
2019-03-02T03:50:42.424Z,82.08
2019-03-02T03:53:11.445Z,84.25
2019-03-02T03:55:40.507Z,96.82
2019-03-02T03:58:12.944Z,89.37
2019-03-02T04:00:41.977Z,78.52
2019-03-02T04:03:13.822Z,76.95
2019-03-02T04:05:42.058Z,79.32
2019-03-02T04:08:12.057Z,71.60
2019-03-02T04:10:41.035Z,80.03
2019-03-02T04:13:10.081Z,79.90
2019-03-02T04:15:41.504Z,73.02
2019-03-02T04:18:41.248Z,78.97
2019-03-02T04:21:10.152Z,77.95
2019-03-02T04:23:39.335Z,66.97
2019-03-02T04:26:08.349Z,80.25
2019-03-02T04:28:37.168Z,67.65
2019-03-02T04:31:09.096Z,78.07
2019-03-02T04:33:39.159Z,73.02
2019-03-02T04:36:11.285Z,73.85
2019-03-02T04:38:40.331Z,76.40
2019-03-02T04:41:09.316Z,75.37
2019-03-02T04:43:38.202Z,80.70
2019-03-02T04:46:15.383Z,86.95
2019-03-02T04:48:44.471Z,69.97
2019-03-02T04:51:13.257Z,74.70
2019-03-02T04:53:42.239Z,78.07
2019-03-02T04:56:11.149Z,76.10
2019-03-02T04:58:40.095Z,73.47
2019-03-02T05:01:10.540Z,83.05
2019-03-02T05:03:39.282Z,74.60
2019-03-02T05:06:08.035Z,76.15
2019-03-02T05:08:37.449Z,70.42
2019-03-02T05:11:08.330Z,80.55
2019-03-02T05:13:37.367Z,71.02
2019-03-02T05:16:06.763Z,80.35
2019-03-02T05:18:36.240Z,76.33
2019-03-02T05:21:05.428Z,70.15
2019-03-02T05:23:34.720Z,72.62
2019-03-02T05:26:03.453Z,91.70
2019-03-02T05:28:39.606Z,74.60
2019-03-02T05:31:09.981Z,62.48
2019-03-02T05:33:39.082Z,71.05
2019-03-02T05:36:08.183Z,76.33
2019-03-02T05:38:37.437Z,89.70
2019-03-02T05:41:06.409Z,76.33
2019-03-02T05:43:35.233Z,81.15
2019-03-02T05:46:04.010Z,82.53
2019-03-02T05:48:33.285Z,73.42
2019-03-02T05:51:03.837Z,78.80
2019-03-02T05:53:34.186Z,96.55
2019-03-02T05:56:03.149Z,86.08
2019-03-02T05:58:32.103Z,73.07
2019-03-02T06:01:03.285Z,87.60
2019-03-02T06:03:32.070Z,86.47
2019-03-02T06:06:00.819Z,81.20
2019-03-02T06:08:32.091Z,80.70
2019-03-02T06:11:03.466Z,79.07
2019-03-02T06:13:31.964Z,90.32
2019-03-02T06:16:01.003Z,79.03
2019-03-02T06:18:29.871Z,88.95
2019-03-02T06:20:58.851Z,74.27
2019-03-02T06:23:30.027Z,93.65
2019-03-02T06:25:58.865Z,82.25
2019-03-02T06:28:28.284Z,98.82
2019-03-02T06:30:57.313Z,94.50
2019-03-02T06:33:33.721Z,80.22
2019-03-02T06:36:04.958Z,89.00
2019-03-02T06:38:33.089Z,87.53
2019-03-02T06:41:01.880Z,90.35
2019-03-02T06:43:30.657Z,100.18
2019-03-02T06:45:59.457Z,96.00
2019-03-02T06:48:28.116Z,95.00
2019-03-02T06:50:56.785Z,111.05
2019-03-02T06:53:25.596Z,108.95
2019-03-02T06:55:56.848Z,101.10
2019-03-02T06:58:27.229Z,90.35
2019-03-02T07:00:58.408Z,95.15
2019-03-02T07:03:27.126Z,96.25
2019-03-02T07:05:55.857Z,93.10
2019-03-02T07:08:25.389Z,97.15
2019-03-02T07:10:54.508Z,103.60
2019-03-02T07:13:24.801Z,116.80
2019-03-02T07:15:53.505Z,123.65
2019-03-02T07:18:23.801Z,98.15
2019-03-02T07:20:52.626Z,103.92
2019-03-02T07:23:24.468Z,102.85
2019-03-02T07:25:51.729Z,101.42
2019-03-02T07:28:23.335Z,96.57
2019-03-02T07:30:52.126Z,98.97
2019-03-02T07:33:20.862Z,95.42
2019-03-02T07:35:51.731Z,100.25
2019-03-02T07:38:20.356Z,95.97
2019-03-02T07:40:50.315Z,102.70
2019-03-02T07:43:21.119Z,90.75
2019-03-02T07:45:49.893Z,94.85
2019-03-02T07:48:18.673Z,91.42
2019-03-02T07:50:47.354Z,101.75
2019-03-02T07:53:16.132Z,98.22
2019-03-02T07:55:44.814Z,99.32
2019-03-02T07:58:16.581Z,86.87
2019-03-02T08:00:43.881Z,84.20
2019-03-02T08:03:15.447Z,90.75
2019-03-02T08:05:46.943Z,117.97
2019-03-02T08:08:15.049Z,84.35
2019-03-02T08:10:46.769Z,97.47
2019-03-02T08:13:15.431Z,109.22
2019-03-02T08:15:44.203Z,118.97
2019-03-02T08:18:15.521Z,100.87
2019-03-02T08:20:44.637Z,98.12
2019-03-02T08:23:13.386Z,93.87
2019-03-02T08:25:42.158Z,90.57
2019-03-02T08:28:11.141Z,88.52
2019-03-02T08:30:39.997Z,84.32
2019-03-02T08:33:08.801Z,91.30
2019-03-02T08:35:37.581Z,77.60
2019-03-02T08:38:06.378Z,75.20
2019-03-02T08:40:36.681Z,81.47
2019-03-02T08:43:05.432Z,73.37
2019-03-02T08:45:34.237Z,78.87
2019-03-02T08:48:02.907Z,77.55
2019-03-02T08:50:31.731Z,71.30
2019-03-02T08:53:00.408Z,76.22
2019-03-02T08:55:29.743Z,69.50
2019-03-02T08:57:59.578Z,75.03
2019-03-02T09:00:29.144Z,69.72
2019-03-02T09:03:00.749Z,78.20
2019-03-02T09:05:43.511Z,68.97
2019-03-02T09:08:00.211Z,64.40
2019-03-02T09:10:29.319Z,71.15
2019-03-02T09:12:59.617Z,68.45
2019-03-02T09:15:30.525Z,71.42
2019-03-02T09:17:59.254Z,69.77
2019-03-02T09:20:27.981Z,68.12
2019-03-02T09:23:00.365Z,67.30
2019-03-02T09:25:28.157Z,60.23
2019-03-02T09:27:57.617Z,73.45
2019-03-02T09:30:26.405Z,53.30
2019-03-02T09:32:56.723Z,57.85
2019-03-02T09:35:25.461Z,66.10
2019-03-02T09:37:54.171Z,53.50
2019-03-02T09:40:24.814Z,56.18
2019-03-02T09:42:53.953Z,56.33
2019-03-02T09:45:22.682Z,52.45
2019-03-02T09:47:54.436Z,62.17
2019-03-02T09:50:23.872Z,54.30
2019-03-02T09:52:52.772Z,58.68
2019-03-02T09:55:21.617Z,56.28
2019-03-02T09:57:50.490Z,51.98
2019-03-02T10:00:27.101Z,46.50
2019-03-02T10:02:55.933Z,51.48
2019-03-02T10:05:26.185Z,50.15
2019-03-02T10:07:55.231Z,48.80
2019-03-02T10:10:28.708Z,42.00
2019-03-02T10:12:55.306Z,51.73
2019-03-02T10:15:28.594Z,47.27
2019-03-02T10:17:57.456Z,48.45
2019-03-02T10:20:26.249Z,57.17
2019-03-02T10:22:54.956Z,55.15
2019-03-02T10:25:26.560Z,47.93
2019-03-02T10:27:57.311Z,45.73
2019-03-02T10:30:25.985Z,57.70
2019-03-02T10:32:56.892Z,48.63
2019-03-02T10:35:25.850Z,43.13
2019-03-02T10:37:54.647Z,48.20
2019-03-02T10:40:23.591Z,56.85
2019-03-02T10:42:52.346Z,49.55
2019-03-02T10:45:22.438Z,49.90
2019-03-02T10:47:51.180Z,50.45
2019-03-02T10:50:23.394Z,52.85
2019-03-02T10:52:52.283Z,55.33
2019-03-02T10:55:22.058Z,48.45
2019-03-02T10:57:50.787Z,54.77
2019-03-02T11:00:29.591Z,44.95
2019-03-02T11:03:00.346Z,56.53
2019-03-02T11:05:36.560Z,48.95
2019-03-02T11:08:07.187Z,48.63
2019-03-02T11:10:37.586Z,50.58
2019-03-02T11:13:23.959Z,50.83
2019-03-02T11:16:10.619Z,42.20
2019-03-02T11:18:53.202Z,51.40
2019-03-02T11:21:30.953Z,54.73
2019-03-02T11:24:09.588Z,45.48
2019-03-02T11:26:51.893Z,61.53
2019-03-02T11:29:38.379Z,49.65
2019-03-02T11:32:24.836Z,43.68
2019-03-02T11:34:58.073Z,49.05
2019-03-02T11:37:28.507Z,48.98
2019-03-02T11:40:09.883Z,42.38
2019-03-02T11:42:45.821Z,49.27
2019-03-02T11:45:24.973Z,45.45
2019-03-02T11:47:58.383Z,39.20
2019-03-02T11:50:31.532Z,47.98
2019-03-02T11:53:01.964Z,47.03
2019-03-02T11:55:32.346Z,46.85
2019-03-02T11:58:05.193Z,48.85
2019-03-02T12:00:38.038Z,42.43
2019-03-02T12:03:07.549Z,46.13
2019-03-02T12:05:52.835Z,39.78
2019-03-02T12:08:35.215Z,38.50
2019-03-02T12:11:17.575Z,33.95
2019-03-02T12:14:05.969Z,39.88
2019-03-02T12:16:38.271Z,36.28
2019-03-02T12:19:11.579Z,39.40
2019-03-02T12:21:57.783Z,45.20
2019-03-02T12:24:43.460Z,36.40
2019-03-02T12:27:23.711Z,37.93
2019-03-02T12:29:59.846Z,40.73
2019-03-02T12:32:33.129Z,44.18
2019-03-02T12:35:03.511Z,42.85
2019-03-02T12:37:49.895Z,40.08
2019-03-02T12:40:22.747Z,36.75
2019-03-02T12:43:04.114Z,43.65
2019-03-02T12:45:34.904Z,38.00
2019-03-02T12:48:21.527Z,34.27
2019-03-02T12:51:02.890Z,34.95
2019-03-02T12:53:38.395Z,36.23
2019-03-02T12:56:11.631Z,30.00
2019-03-02T12:58:44.782Z,29.65
2019-03-02T13:01:33.920Z,31.07
2019-03-02T13:04:09.349Z,29.57
2019-03-02T13:06:40.669Z,43.65
2019-03-02T13:09:18.864Z,40.10
2019-03-02T13:11:49.284Z,26.12
2019-03-02T13:14:22.288Z,33.88
2019-03-02T13:16:59.210Z,37.78
2019-03-02T13:19:35.481Z,37.53
2019-03-02T13:22:05.967Z,31.33
2019-03-02T13:24:57.860Z,34.50
2019-03-02T13:27:26.069Z,24.85
2019-03-02T13:30:08.039Z,33.83
2019-03-02T13:32:38.464Z,26.12
2019-03-02T13:35:19.894Z,24.60
2019-03-02T13:37:53.044Z,32.28
2019-03-02T13:40:30.216Z,23.00
2019-03-02T13:43:04.452Z,20.72
2019-03-02T13:45:32.697Z,26.33
2019-03-02T13:48:03.039Z,27.85
2019-03-02T13:50:33.409Z,27.62
2019-03-02T13:53:03.748Z,33.02
2019-03-02T13:55:34.132Z,26.90
2019-03-02T13:58:04.557Z,25.30
2019-03-02T14:00:34.955Z,26.85
2019-03-02T14:03:10.729Z,23.55
2019-03-02T14:05:42.045Z,21.37
2019-03-02T14:08:17.601Z,22.07
2019-03-02T14:10:50.380Z,38.38
2019-03-02T14:13:36.506Z,22.27
2019-03-02T14:16:22.935Z,25.57
2019-03-02T14:19:09.278Z,26.87
2019-03-02T14:21:42.176Z,27.32
2019-03-02T14:24:17.995Z,30.75
2019-03-02T14:26:51.434Z,24.15
2019-03-02T14:29:21.804Z,34.55
2019-03-02T14:31:54.976Z,22.25
2019-03-02T14:34:27.984Z,25.77
2019-03-02T14:37:01.071Z,22.87
2019-03-02T14:39:46.422Z,30.77
2019-03-02T14:42:16.719Z,35.00
2019-03-02T14:44:47.152Z,21.55
2019-03-02T14:47:23.719Z,23.98
2019-03-02T14:50:06.254Z,21.20
2019-03-02T14:52:34.974Z,24.00
2019-03-02T14:55:14.552Z,30.12
2019-03-02T14:57:44.913Z,26.07
2019-03-02T15:00:26.642Z,27.13
2019-03-02T15:02:59.343Z,22.35
2019-03-02T15:05:38.612Z,24.30
2019-03-02T15:08:08.885Z,19.73
2019-03-02T15:10:42.248Z,26.73
2019-03-02T15:13:26.153Z,27.70
2019-03-02T15:16:08.662Z,26.48
2019-03-02T15:18:48.094Z,28.42
2019-03-02T15:21:36.283Z,23.83
2019-03-02T15:24:15.080Z,18.07
2019-03-02T15:26:49.949Z,22.67
2019-03-02T15:29:36.318Z,23.35
2019-03-02T15:32:21.778Z,20.37
2019-03-02T15:34:54.031Z,19.48
2019-03-02T15:37:29.807Z,24.52
2019-03-02T15:40:08.885Z,15.08
2019-03-02T15:42:48.288Z,17.62
2019-03-02T15:45:36.464Z,19.62
2019-03-02T15:48:06.935Z,17.30
2019-03-02T15:50:51.267Z,18.23
2019-03-02T15:53:24.214Z,17.80
2019-03-02T15:55:57.362Z,15.98
2019-03-02T15:58:27.791Z,32.03
2019-03-02T16:01:14.224Z,22.67
2019-03-02T16:03:53.215Z,26.10
2019-03-02T16:06:37.127Z,17.40
2019-03-02T16:09:19.104Z,16.15
2019-03-02T16:11:55.236Z,22.05
2019-03-02T16:14:28.907Z,17.52
2019-03-02T16:17:00.000Z,21.87
2019-03-02T16:19:34.181Z,16.05
2019-03-02T16:22:16.874Z,14.15
2019-03-02T16:24:48.450Z,15.53
2019-03-02T16:27:18.902Z,21.85
2019-03-02T16:29:52.711Z,20.82
2019-03-02T16:32:32.675Z,23.35
2019-03-02T16:35:03.201Z,16.23
2019-03-02T16:37:34.945Z,26.60
2019-03-02T16:40:06.263Z,20.35
2019-03-02T16:42:39.503Z,20.05
2019-03-02T16:45:27.839Z,17.87
2019-03-02T16:47:58.234Z,21.70
2019-03-02T16:50:43.407Z,13.60
2019-03-02T16:53:29.401Z,15.15
2019-03-02T16:56:06.603Z,21.48
2019-03-02T16:58:37.063Z,27.07
2019-03-02T17:01:10.377Z,17.02
2019-03-02T17:03:46.706Z,19.98
2019-03-02T17:06:19.851Z,27.07
2019-03-02T17:09:11.703Z,21.25
2019-03-02T17:11:43.429Z,25.77
2019-03-02T17:14:16.692Z,20.65
2019-03-02T17:16:49.950Z,30.77
2019-03-02T17:19:20.360Z,18.02
2019-03-02T17:21:52.862Z,28.62
2019-03-02T17:24:28.633Z,23.22
2019-03-02T17:27:10.450Z,24.95
2019-03-02T17:29:56.905Z,27.58
2019-03-02T17:32:39.261Z,28.60
2019-03-02T17:35:20.770Z,22.00
2019-03-02T17:37:51.053Z,21.73
2019-03-02T17:40:21.470Z,27.80
2019-03-02T17:42:54.833Z,21.15
2019-03-02T17:45:41.269Z,21.35
2019-03-02T17:48:11.727Z,21.25
2019-03-02T17:50:42.078Z,38.00
2019-03-02T17:53:18.251Z,35.75
2019-03-02T17:55:48.609Z,26.90
2019-03-02T17:58:18.928Z,24.32
2019-03-02T18:01:05.498Z,30.17
2019-03-02T18:03:35.938Z,25.85
2019-03-02T18:06:11.886Z,22.17
2019-03-02T18:08:44.985Z,22.52
2019-03-02T18:11:30.215Z,21.30
2019-03-02T18:14:09.300Z,26.40
2019-03-02T18:16:41.313Z,20.20
2019-03-02T18:19:10.109Z,11.57
2019-03-02T18:21:38.895Z,14.23
2019-03-02T18:24:07.557Z,13.50
2019-03-02T18:26:36.365Z,19.57
2019-03-02T18:29:05.156Z,19.17
2019-03-02T18:31:33.996Z,17.60
2019-03-02T18:34:04.314Z,16.25
2019-03-02T18:36:40.325Z,18.75
2019-03-02T18:39:04.920Z,35.75
2019-03-02T18:41:33.706Z,25.72
2019-03-02T18:44:02.546Z,19.52
2019-03-02T18:46:31.337Z,19.73
2019-03-02T18:49:01.676Z,14.35
2019-03-02T18:51:35.031Z,14.05
2019-03-02T18:54:11.921Z,10.82
2019-03-02T18:56:42.529Z,14.35
2019-03-02T18:59:11.398Z,16.42
2019-03-02T19:01:40.636Z,16.60
2019-03-02T19:04:09.425Z,14.35
2019-03-02T19:06:38.108Z,24.47
2019-03-02T19:09:09.575Z,13.75
2019-03-02T19:11:38.432Z,11.08
2019-03-02T19:14:07.210Z,25.68
2019-03-02T19:16:36.002Z,20.50
2019-03-02T19:19:04.854Z,16.00
2019-03-02T19:21:33.600Z,23.47
2019-03-02T19:24:02.457Z,15.83
2019-03-02T19:26:31.231Z,22.02
2019-03-02T19:29:00.278Z,15.83
2019-03-02T19:31:28.936Z,18.77
2019-03-02T19:33:57.790Z,15.40
2019-03-02T19:36:26.562Z,17.37
2019-03-02T19:38:55.258Z,17.00
2019-03-02T19:41:24.087Z,19.90
2019-03-02T19:43:52.861Z,11.93
2019-03-02T19:46:21.628Z,19.35
2019-03-02T19:48:50.351Z,14.18
2019-03-02T19:51:19.093Z,16.57
2019-03-02T19:53:47.831Z,16.35
2019-03-02T19:56:16.542Z,44.42
2019-03-02T19:58:45.331Z,27.10
2019-03-02T20:01:14.234Z,22.70
2019-03-02T20:03:43.031Z,10.35
2019-03-02T20:06:11.786Z,26.15
2019-03-02T20:08:40.558Z,13.58
2019-03-02T20:11:09.360Z,11.97
2019-03-02T20:13:38.182Z,12.40
2019-03-02T20:16:07.054Z,15.35
2019-03-02T20:18:35.672Z,19.82
2019-03-02T20:21:04.461Z,18.90
2019-03-02T20:23:37.175Z,15.55
2019-03-02T20:26:03.583Z,13.98
2019-03-02T20:28:32.317Z,17.50
2019-03-02T20:31:01.199Z,15.80
2019-03-02T20:33:29.860Z,20.05
2019-03-02T20:35:58.633Z,16.40
2019-03-02T20:38:27.383Z,10.32
2019-03-02T20:40:56.162Z,20.82
2019-03-02T20:43:24.894Z,15.90
2019-03-02T20:45:53.744Z,14.05
2019-03-02T20:48:22.484Z,6.50
2019-03-02T20:50:51.212Z,13.75
2019-03-02T20:53:19.939Z,9.35
2019-03-02T20:55:48.852Z,10.28
2019-03-02T20:58:17.511Z,15.53
2019-03-02T21:00:46.311Z,15.00
2019-03-02T21:03:15.011Z,13.88
2019-03-02T21:05:44.060Z,10.48
2019-03-02T21:08:12.869Z,6.70
2019-03-02T21:10:42.091Z,14.70
2019-03-02T21:13:10.863Z,8.00
2019-03-02T21:15:44.272Z,10.43
2019-03-02T21:18:13.038Z,13.55
2019-03-02T21:20:41.826Z,10.05
2019-03-02T21:23:10.838Z,14.93
2019-03-02T21:25:39.762Z,12.45
2019-03-02T21:28:08.418Z,7.15
2019-03-02T21:30:37.252Z,13.22
2019-03-02T21:33:05.993Z,5.62
2019-03-02T21:35:34.754Z,9.00
2019-03-02T21:38:03.570Z,11.53
2019-03-02T21:40:33.738Z,8.38
2019-03-02T21:43:02.525Z,7.15
2019-03-02T21:45:32.180Z,9.43
2019-03-02T21:48:01.674Z,5.85
2019-03-02T21:50:35.057Z,8.50
2019-03-02T21:53:03.821Z,4.90
2019-03-02T21:55:32.585Z,6.83
2019-03-02T21:58:01.326Z,4.22
2019-03-02T22:00:32.861Z,3.70
2019-03-02T22:03:01.609Z,3.87
2019-03-02T22:05:30.258Z,4.22
2019-03-02T22:07:58.940Z,4.40
2019-03-02T22:10:47.133Z,6.62
2019-03-02T22:13:15.810Z,5.58
2019-03-02T22:15:44.515Z,5.80
2019-03-02T22:18:13.285Z,4.37
2019-03-02T22:20:41.939Z,4.60
2019-03-02T22:23:11.109Z,8.50
2019-03-02T22:25:39.827Z,3.72
2019-03-02T22:28:08.610Z,3.60
2019-03-02T22:30:37.301Z,9.58
2019-03-02T22:33:06.061Z,7.65
2019-03-02T22:35:34.857Z,5.95
2019-03-02T22:38:03.581Z,4.95
2019-03-02T22:40:32.280Z,7.78
2019-03-02T22:43:00.956Z,6.12
2019-03-02T22:45:29.593Z,3.80
2019-03-02T22:47:58.270Z,7.17
2019-03-02T22:50:33.966Z,4.47
2019-03-02T22:53:02.756Z,6.60
2019-03-02T22:55:31.516Z,6.30
2019-03-02T22:58:00.723Z,4.08
2019-03-02T23:00:32.376Z,3.37
2019-03-02T23:02:59.894Z,5.67
2019-03-02T23:05:28.599Z,5.40
2019-03-02T23:07:57.293Z,6.58
2019-03-02T23:10:26.027Z,10.08
2019-03-02T23:12:54.742Z,3.62
2019-03-02T23:15:27.013Z,3.50
2019-03-02T23:17:55.599Z,4.03
2019-03-02T23:20:24.318Z,4.15
2019-03-02T23:22:52.902Z,4.33
2019-03-02T23:25:21.690Z,5.85
2019-03-02T23:27:50.421Z,4.72
2019-03-02T23:30:20.398Z,6.30
2019-03-02T23:32:49.152Z,12.55
2019-03-02T23:35:17.918Z,4.70
2019-03-02T23:37:46.678Z,7.00
2019-03-02T23:40:19.596Z,5.72
2019-03-02T23:42:48.321Z,9.88
2019-03-02T23:45:20.132Z,6.00
2019-03-02T23:47:49.200Z,10.38
2019-03-02T23:50:17.833Z,10.53
2019-03-02T23:52:47.263Z,6.92
2019-03-02T23:55:16.180Z,7.90
2019-03-02T23:57:44.953Z,12.70
